createdAt,value
2022-12-03T01:39:15.870Z,3.40
2022-12-03T01:43:17.814Z,1.70
2022-12-03T01:47:22.246Z,1.70
2022-12-03T01:51:24.221Z,1.70
2022-12-03T01:55:29.240Z,1.70
2022-12-03T01:59:35.707Z,1.60
2022-12-03T02:03:37.945Z,1.50
2022-12-03T02:07:39.979Z,1.40
2022-12-03T02:11:47.223Z,1.40
2022-12-03T02:15:49.343Z,1.30
2022-12-03T02:19:52.197Z,1.30
2022-12-03T02:24:02.306Z,1.30
2022-12-03T02:28:08.838Z,1.20
2022-12-03T02:32:10.850Z,1.20
2022-12-03T02:36:13.173Z,1.10
2022-12-03T02:40:19.409Z,1.00
2022-12-03T02:44:23.983Z,0.90
2022-12-03T02:48:29.772Z,0.90
2022-12-03T02:52:32.187Z,0.90
2022-12-03T02:56:34.150Z,1.00
2022-12-03T03:00:39.406Z,1.00
2022-12-03T03:04:42.221Z,1.10
2022-12-03T03:08:45.553Z,1.20
2022-12-03T03:12:47.549Z,1.20
2022-12-03T03:16:52.355Z,1.20
2022-12-03T03:20:54.527Z,1.20
2022-12-03T03:24:56.473Z,1.20
2022-12-03T03:28:58.473Z,1.10
2022-12-03T03:33:03.052Z,1.10
2022-12-03T03:37:05.169Z,1.10
2022-12-03T03:41:09.219Z,1.10
2022-12-03T03:45:11.412Z,1.10
2022-12-03T03:49:16.429Z,1.10
2022-12-03T03:53:19.187Z,1.00
2022-12-03T03:57:21.308Z,1.00
2022-12-03T04:01:24.721Z,1.10
2022-12-03T04:05:29.467Z,1.00
2022-12-03T04:09:31.463Z,0.90
2022-12-03T04:13:33.422Z,0.90
2022-12-03T04:17:35.399Z,0.90
2022-12-03T04:21:39.912Z,0.80
2022-12-03T04:25:41.914Z,0.80
2022-12-03T04:29:43.857Z,0.80
2022-12-03T04:33:45.786Z,0.70
2022-12-03T04:37:50.313Z,0.70
2022-12-03T04:41:52.260Z,0.60
2022-12-03T04:45:54.284Z,0.60
2022-12-03T04:49:56.283Z,0.50
2022-12-03T04:54:00.939Z,0.50
2022-12-03T04:58:02.979Z,0.50
2022-12-03T05:02:06.019Z,0.50
2022-12-03T05:06:08.297Z,0.50
2022-12-03T05:10:13.299Z,0.50
2022-12-03T05:14:15.258Z,0.60
2022-12-03T05:18:17.213Z,0.60
2022-12-03T05:22:19.140Z,0.70
2022-12-03T05:26:23.677Z,0.70
2022-12-03T05:30:25.775Z,0.70
2022-12-03T05:34:27.781Z,0.70
2022-12-03T05:38:29.760Z,0.80
2022-12-03T05:42:34.277Z,0.80
2022-12-03T05:46:36.359Z,0.80
2022-12-03T05:50:39.932Z,0.80
2022-12-03T05:54:41.894Z,0.80
2022-12-03T05:58:46.454Z,0.80
2022-12-03T06:02:48.544Z,0.80
2022-12-03T06:06:50.645Z,0.70
2022-12-03T06:10:52.594Z,0.80
2022-12-03T06:14:57.790Z,0.80
2022-12-03T06:18:59.752Z,0.80
2022-12-03T06:23:01.699Z,0.80
2022-12-03T06:27:03.776Z,0.80
2022-12-03T06:31:08.462Z,0.80
2022-12-03T06:35:10.454Z,0.90
2022-12-03T06:39:12.385Z,0.90
2022-12-03T06:43:14.369Z,1.00
2022-12-03T06:47:18.902Z,1.00
2022-12-03T06:51:20.921Z,1.00
2022-12-03T06:55:22.900Z,1.00
2022-12-03T06:59:24.872Z,1.00
2022-12-03T07:03:29.459Z,0.90
2022-12-03T07:07:31.586Z,0.90
2022-12-03T07:11:33.633Z,0.90
2022-12-03T07:15:35.654Z,0.90
2022-12-03T07:19:40.219Z,0.90
2022-12-03T07:23:42.188Z,1.00
2022-12-03T07:27:44.107Z,1.00
2022-12-03T07:31:46.285Z,1.00
2022-12-03T07:35:50.911Z,0.90
2022-12-03T07:39:52.874Z,0.90
2022-12-03T07:43:54.913Z,1.00
2022-12-03T07:47:56.876Z,1.00
2022-12-03T07:52:01.463Z,1.00
2022-12-03T07:56:03.665Z,1.10
2022-12-03T08:00:07.218Z,1.10
2022-12-03T08:04:09.418Z,1.10
2022-12-03T08:08:14.184Z,1.00
2022-12-03T08:12:20.347Z,1.00
2022-12-03T08:16:23.009Z,1.10
2022-12-03T08:20:27.803Z,1.10
2022-12-03T08:24:32.343Z,1.00
2022-12-03T08:28:34.262Z,1.00
2022-12-03T08:32:36.243Z,1.20
2022-12-03T08:36:38.210Z,1.30
2022-12-03T08:40:45.552Z,1.20
2022-12-03T08:44:47.912Z,1.30
2022-12-03T08:48:49.893Z,1.30
2022-12-03T08:52:52.774Z,1.30
2022-12-03T08:56:57.351Z,1.40
2022-12-03T09:01:20.705Z,1.40
2022-12-03T09:05:26.243Z,1.50
2022-12-03T09:09:28.780Z,1.50
2022-12-03T09:13:33.414Z,1.50
2022-12-03T09:17:35.440Z,1.50
2022-12-03T09:21:37.415Z,1.40
2022-12-03T09:25:39.626Z,1.40
2022-12-03T09:29:44.198Z,1.40
2022-12-03T09:33:46.197Z,1.50
2022-12-03T09:37:48.257Z,1.50
2022-12-03T09:41:50.242Z,1.40
2022-12-03T09:45:54.912Z,1.50
2022-12-03T09:49:57.439Z,1.50
2022-12-03T09:53:59.836Z,1.50
2022-12-03T09:58:01.970Z,1.50
2022-12-03T10:02:18.938Z,1.50
2022-12-03T10:06:23.208Z,1.60
2022-12-03T10:10:25.290Z,1.70
2022-12-03T10:14:28.196Z,1.80
2022-12-03T10:18:38.298Z,1.70
2022-12-03T10:22:43.492Z,1.80
2022-12-03T10:26:46.832Z,1.70
2022-12-03T10:30:53.926Z,1.70
2022-12-03T10:35:11.779Z,1.80
2022-12-03T10:39:15.211Z,1.70
2022-12-03T10:43:22.711Z,1.70
2022-12-03T10:47:24.761Z,1.60
2022-12-03T10:51:30.348Z,1.60
2022-12-03T10:55:37.766Z,1.70
2022-12-03T10:59:41.794Z,1.70
2022-12-03T11:03:50.118Z,1.70
2022-12-03T11:07:55.254Z,1.60
2022-12-03T11:12:04.243Z,1.80
2022-12-03T11:16:06.989Z,1.80
2022-12-03T11:20:11.419Z,1.70
2022-12-03T11:24:24.968Z,1.70
2022-12-03T11:28:38.136Z,1.60
2022-12-03T11:33:03.988Z,1.50
2022-12-03T11:37:21.838Z,1.60
2022-12-03T11:41:32.100Z,1.60
2022-12-03T11:45:36.562Z,1.50
2022-12-03T11:49:45.846Z,1.60
2022-12-03T11:53:48.729Z,1.50
2022-12-03T11:57:58.060Z,1.60
2022-12-03T12:02:00.047Z,1.60
2022-12-03T12:06:04.736Z,1.60
2022-12-03T12:10:07.491Z,1.60
2022-12-03T12:14:13.211Z,1.70
2022-12-03T12:18:40.270Z,1.70
2022-12-03T12:22:42.258Z,1.80
2022-12-03T12:26:50.561Z,1.80
2022-12-03T12:30:55.095Z,1.80
2022-12-03T12:35:02.006Z,1.80
2022-12-03T12:39:08.221Z,1.70
2022-12-03T12:43:24.138Z,1.70
2022-12-03T12:47:29.860Z,1.70
2022-12-03T12:51:31.937Z,1.70
2022-12-03T12:55:33.877Z,1.60
2022-12-03T12:59:36.017Z,1.50
2022-12-03T13:03:40.557Z,1.50
2022-12-03T13:07:43.348Z,1.50
2022-12-03T13:11:46.959Z,1.50
2022-12-03T13:15:52.444Z,1.50
2022-12-03T13:20:05.569Z,1.50
2022-12-03T13:24:28.874Z,1.60
2022-12-03T13:28:31.848Z,1.60
2022-12-03T13:32:36.282Z,1.50
2022-12-03T13:36:58.529Z,1.40
2022-12-03T13:41:03.140Z,1.40
2022-12-03T13:45:34.271Z,1.40
2022-12-03T13:49:36.702Z,1.40
2022-12-03T13:53:41.359Z,1.30
2022-12-03T13:57:43.313Z,1.40
2022-12-03T14:01:45.423Z,1.30
2022-12-03T14:05:47.527Z,1.20
2022-12-03T14:09:52.521Z,1.20
2022-12-03T14:13:54.626Z,1.20
2022-12-03T14:17:56.617Z,1.30
2022-12-03T14:21:58.613Z,1.30
2022-12-03T14:26:03.158Z,1.30
2022-12-03T14:30:06.868Z,1.30
2022-12-03T14:34:08.822Z,1.30
2022-12-03T14:38:10.786Z,1.40
2022-12-03T14:42:15.387Z,1.30
2022-12-03T14:46:17.423Z,1.30
2022-12-03T14:50:19.457Z,1.30
2022-12-03T14:54:21.487Z,1.30
2022-12-03T14:58:26.024Z,1.20
2022-12-03T15:02:28.063Z,1.20
2022-12-03T15:06:30.044Z,1.10
2022-12-03T15:10:31.985Z,1.10
2022-12-03T15:14:36.583Z,1.10
2022-12-03T15:18:38.506Z,1.10
2022-12-03T15:22:40.461Z,1.10
2022-12-03T15:26:42.419Z,1.10
2022-12-03T15:30:46.986Z,1.10
2022-12-03T15:34:49.025Z,1.10
2022-12-03T15:38:50.994Z,1.00
2022-12-03T15:42:53.041Z,1.00
2022-12-03T15:46:57.584Z,1.00
2022-12-03T15:50:59.549Z,0.90
2022-12-03T15:55:01.551Z,0.90
2022-12-03T15:59:03.637Z,0.90
2022-12-03T16:03:08.307Z,0.90
2022-12-03T16:07:10.378Z,0.90
2022-12-03T16:11:12.311Z,0.90
2022-12-03T16:15:14.407Z,1.00
2022-12-03T16:19:18.931Z,0.90
2022-12-03T16:23:20.884Z,1.00
2022-12-03T16:27:25.617Z,0.90
2022-12-03T16:31:28.103Z,0.90
2022-12-03T16:35:32.653Z,1.00
2022-12-03T16:39:34.595Z,0.90
2022-12-03T16:43:36.526Z,0.90
2022-12-03T16:47:38.522Z,0.90
2022-12-03T16:51:43.157Z,0.90
2022-12-03T16:55:45.105Z,1.00
2022-12-03T16:59:47.053Z,0.90
2022-12-03T17:03:49.188Z,0.90
2022-12-03T17:07:53.843Z,0.90
2022-12-03T17:11:55.853Z,0.80
2022-12-03T17:15:58.068Z,0.90
2022-12-03T17:20:00.200Z,0.80
2022-12-03T17:24:05.394Z,0.90
2022-12-03T17:28:07.346Z,0.90
2022-12-03T17:32:09.315Z,0.70
2022-12-03T17:36:11.627Z,0.70
2022-12-03T17:40:16.492Z,0.70
2022-12-03T17:44:21.128Z,0.70
2022-12-03T17:48:23.481Z,0.80
2022-12-03T17:52:25.449Z,0.70
2022-12-03T17:56:30.028Z,0.80
2022-12-03T18:00:32.430Z,0.70
2022-12-03T18:04:34.393Z,0.70
2022-12-03T18:08:36.339Z,0.70
2022-12-03T18:12:40.844Z,0.70
2022-12-03T18:16:42.838Z,0.70
2022-12-03T18:20:44.923Z,0.70
2022-12-03T18:24:51.509Z,0.60
2022-12-03T18:28:56.617Z,0.60
2022-12-03T18:32:58.569Z,0.60
2022-12-03T18:37:00.552Z,0.70
2022-12-03T18:41:02.538Z,0.70
2022-12-03T18:45:11.564Z,0.70
2022-12-03T18:49:13.509Z,0.70
2022-12-03T18:53:18.287Z,0.70
2022-12-03T18:57:20.224Z,0.70
2022-12-03T19:01:24.877Z,0.70
2022-12-03T19:05:27.077Z,0.70
2022-12-03T19:09:29.120Z,0.70
2022-12-03T19:13:31.154Z,0.70
2022-12-03T19:17:35.925Z,0.60
2022-12-03T19:21:37.969Z,0.60
2022-12-03T19:25:39.935Z,0.60
2022-12-03T19:29:41.954Z,0.70
2022-12-03T19:33:46.794Z,0.70
2022-12-03T19:37:49.035Z,0.70
2022-12-03T19:41:51.042Z,0.70
2022-12-03T19:45:53.125Z,0.70
2022-12-03T19:49:57.842Z,0.70
2022-12-03T19:54:00.169Z,0.60
2022-12-03T19:58:02.155Z,0.70
2022-12-03T20:02:04.320Z,0.70
2022-12-03T20:06:09.944Z,0.70
2022-12-03T20:10:11.941Z,0.60
2022-12-03T20:14:15.151Z,0.70
2022-12-03T20:18:17.350Z,0.60
2022-12-03T20:22:21.925Z,0.60
2022-12-03T20:26:24.576Z,0.70
2022-12-03T20:30:26.566Z,0.70
2022-12-03T20:34:28.496Z,0.70
2022-12-03T20:38:33.052Z,0.70
2022-12-03T20:42:35.017Z,0.70
2022-12-03T20:46:37.027Z,0.70
2022-12-03T20:50:39.611Z,0.70
2022-12-03T20:54:44.259Z,0.70
2022-12-03T20:58:46.643Z,0.70
2022-12-03T21:02:48.686Z,0.70
2022-12-03T21:06:50.810Z,0.70
2022-12-03T21:10:55.358Z,0.70
2022-12-03T21:14:57.352Z,0.80
2022-12-03T21:18:59.529Z,0.80
2022-12-03T21:23:01.465Z,0.80
2022-12-03T21:27:06.018Z,0.80
2022-12-03T21:31:10.154Z,0.80
2022-12-03T21:35:12.552Z,0.80
2022-12-03T21:39:14.744Z,0.80
2022-12-03T21:43:19.724Z,0.80
2022-12-03T21:47:21.729Z,0.80
2022-12-03T21:51:23.741Z,0.80
2022-12-03T21:55:25.698Z,0.80
2022-12-03T21:59:30.339Z,0.70
2022-12-03T22:03:32.274Z,0.80
2022-12-03T22:07:35.480Z,0.80
2022-12-03T22:11:37.515Z,0.80
2022-12-03T22:15:42.114Z,0.80
2022-12-03T22:19:44.103Z,0.80
2022-12-03T22:23:46.581Z,0.80
2022-12-03T22:27:48.600Z,0.80
2022-12-03T22:31:53.190Z,0.90
2022-12-03T22:35:56.743Z,0.90
2022-12-03T22:39:58.781Z,0.90
2022-12-03T22:44:00.761Z,0.80
2022-12-03T22:48:06.025Z,0.80
2022-12-03T22:52:08.287Z,0.80
2022-12-03T22:56:10.661Z,0.90
2022-12-03T23:00:14.459Z,0.80
2022-12-03T23:04:19.120Z,0.80
2022-12-03T23:08:21.993Z,0.90
2022-12-03T23:12:23.945Z,0.90
2022-12-03T23:16:28.410Z,0.90
2022-12-03T23:20:33.011Z,0.90
2022-12-03T23:24:34.955Z,0.90
2022-12-03T23:28:38.709Z,0.90
2022-12-03T23:32:41.180Z,0.80
2022-12-03T23:36:45.707Z,0.80
2022-12-03T23:40:48.439Z,0.80
2022-12-03T23:44:50.594Z,0.80
2022-12-03T23:48:52.596Z,0.70
2022-12-03T23:52:57.412Z,0.80
2022-12-03T23:56:59.365Z,0.80
